Far Hills, NJ (07931)

11:32 PM EST on January 31, 2015 (GMT -0500)
Far Hills | Change Station
CLOSE
Current Station
Personal Weather Station
Location: Far Hills, NJ
Elevation: 151 ft
Nearby Weather Stations
Active Advisory: Winter Storm Watch

Elev 151 ft 40.68 °N, 74.64 °W | Updated 12 minutes ago

Clear
Clear
13.5 °F
Feels Like 14 °F
N
0.0
Wind Variable Wind from North
Gusts 0.0 mph

Today
High -- | Low -- °F
--% Chance of Precip.
Yesterday
High -- | Low -- °F
Precip. -- in
7:09 AM 5:14 PM
Waxing Gibbous, 93% visible
Pressure 30.22 in
Visibility 10.0 miles
Clouds Clear
Windchill 14 °F
Dew Point 7 °F
Humidity 74%
Rainfall 0.00 in
Snow Depth Not available.
UV 0 out of 12
Pollen .10 out of 12
Air Quality Not available.
Flu Activity Not available.
METAR KSMQ 010353Z AUTO 00000KT 10SM CLR M10/M15 A3021 RMK AO2 SLP233 T11001150 TSNO

More Conditions Fewer Conditions

Pressure 30.22 in
Visibility 10.0 miles
Clouds Clear
Windchill 14 °F
Dew Point 7 °F
Humidity 74%
Rainfall 0.00 in
Snow Depth Not available.
UV 0 out of 12
Pollen .10 out of 12
Air Quality Not available.
Flu Activity Not available.
METAR KSMQ 010353Z AUTO 00000KT 10SM CLR M10/M15 A3021 RMK AO2 SLP233 T11001150 TSNO

More Conditions Fewer Conditions

10-Day Weather Forecast

Almanac

Astronomy

Jan. 31, 2015 Rise Set
Actual Time
Civil Twilight
Nautical Twilight
Astronomical Twilight
Moon
Length of Visible Light
Length of Day
Tomorrow will be .
, % of the Moon is Illuminated

Today's Extremes

State Highs State Lows

Community

WunderPhotos

Upload Photos

1,792,312 photos uploaded!

WunderBlogs® & News

Nearby

Air Quality

  Air Quality AQ Index Pollutant
Not available.

Snow Depth

Station Depth Elevation

Earthquake Activity

City Distance Mag. Time & Date
Minimum magnitude displayed is 2.5.

Coastal Water Temperatures

Place Temperature

Nearby Weather Stations